DEFRD EDXW-EDDC
Flight info
| Callsign | DEFRD |
|---|---|
| Flight time | 1h 6m |
| Altitude | 29000 |
| Route | OLDIP1B OLDIP DCT EKERN M852 AMLUH L619 PITEN Z998 OSKAN OSKAN4A |
| Aircraft | SF50/L-SDGRWY/L |
Departure
| Time | 2026-04-25 20:52 |
|---|---|
| Airport | Westerland Sylt Airport (EDXW) |
Arrival
| Time | 2026-04-25 21:58 |
|---|---|
| Airport | Dresden Airport (EDDC) |
| Time | Latitude | Longitude | Altitude | Speed | Heading |
|---|---|---|---|---|---|
| 2026-04-25 20:25 | 54.91352 | 8.33111 | 52 ft | 0 kts | 271° |
| 2026-04-25 20:45 | 54.91356 | 8.33121 | 52 ft | 3 kts | 95° |
| 2026-04-25 20:45 | 54.91349 | 8.33200 | 52 ft | 10 kts | 124° |
| 2026-04-25 20:45 | 54.91296 | 8.33207 | 52 ft | 7 kts | 211° |
| 2026-04-25 20:46 | 54.91254 | 8.33179 | 52 ft | 6 kts | 182° |
| 2026-04-25 20:46 | 54.91157 | 8.33180 | 52 ft | 18 kts | 179° |
| 2026-04-25 20:46 | 54.91037 | 8.33172 | 51 ft | 16 kts | 185° |
| 2026-04-25 20:46 | 54.90961 | 8.33106 | 52 ft | 11 kts | 167° |
| 2026-04-25 20:47 | 54.90884 | 8.33171 | 52 ft | 13 kts | 158° |
| 2026-04-25 20:47 | 54.90788 | 8.33213 | 52 ft | 15 kts | 174° |
| 2026-04-25 20:47 | 54.90679 | 8.33229 | 52 ft | 15 kts | 174° |
| 2026-04-25 20:47 | 54.90589 | 8.33246 | 52 ft | 11 kts | 174° |
| 2026-04-25 20:48 | 54.90523 | 8.33257 | 52 ft | 8 kts | 172° |
| 2026-04-25 20:48 | 54.90457 | 8.33296 | 52 ft | 12 kts | 146° |
| 2026-04-25 20:48 | 54.90387 | 8.33378 | 52 ft | 13 kts | 143° |
| 2026-04-25 20:48 | 54.90323 | 8.33485 | 52 ft | 13 kts | 128° |
| 2026-04-25 20:49 | 54.90278 | 8.33624 | 52 ft | 13 kts | 108° |
| 2026-04-25 20:49 | 54.90258 | 8.33793 | 52 ft | 18 kts | 99° |
| 2026-04-25 20:49 | 54.90239 | 8.34032 | 52 ft | 19 kts | 94° |
| 2026-04-25 20:49 | 54.90252 | 8.34265 | 52 ft | 19 kts | 78° |
| 2026-04-25 20:50 | 54.90298 | 8.34432 | 52 ft | 16 kts | 54° |
| 2026-04-25 20:50 | 54.90388 | 8.34600 | 52 ft | 21 kts | 42° |
| 2026-04-25 20:50 | 54.90507 | 8.34790 | 52 ft | 22 kts | 42° |
| 2026-04-25 20:50 | 54.90602 | 8.34926 | 52 ft | 14 kts | 4° |
| 2026-04-25 20:51 | 54.90635 | 8.34901 | 52 ft | 0 kts | 324° |
| 2026-04-25 20:51 | 54.90731 | 8.34786 | 51 ft | 49 kts | 324° |
| 2026-04-25 20:51 | 54.91136 | 8.34283 | 274 ft | 82 kts | 327° |
| 2026-04-25 20:52 | 54.91629 | 8.33666 | 780 ft | 93 kts | 326° |
| 2026-04-25 20:52 | 54.91993 | 8.33213 | 1133 ft | 99 kts | 329° |
| 2026-04-25 20:52 | 54.92825 | 8.32288 | 2095 ft | 107 kts | 334° |
| 2026-04-25 20:52 | 54.93524 | 8.31635 | 2878 ft | 123 kts | 336° |
| 2026-04-25 20:53 | 54.94247 | 8.30728 | 3712 ft | 131 kts | 325° |
| 2026-04-25 20:53 | 54.94977 | 8.29596 | 4167 ft | 162 kts | 324° |
| 2026-04-25 20:53 | 54.95917 | 8.28311 | 4063 ft | 184 kts | 327° |
| 2026-04-25 20:53 | 54.96756 | 8.26585 | 4008 ft | 192 kts | 308° |
| 2026-04-25 20:54 | 54.97302 | 8.24399 | 4001 ft | 203 kts | 292° |
| 2026-04-25 20:54 | 54.97426 | 8.21926 | 4637 ft | 202 kts | 274° |
| 2026-04-25 20:54 | 54.97161 | 8.19658 | 5848 ft | 182 kts | 260° |
| 2026-04-25 20:54 | 54.96600 | 8.17746 | 6803 ft | 180 kts | 247° |
| 2026-04-25 20:55 | 54.95809 | 8.15994 | 7428 ft | 190 kts | 235° |
| 2026-04-25 20:55 | 54.94674 | 8.14671 | 8088 ft | 203 kts | 215° |
| 2026-04-25 20:55 | 54.93265 | 8.14023 | 8725 ft | 218 kts | 192° |
| 2026-04-25 20:55 | 54.91723 | 8.14302 | 9358 ft | 229 kts | 166° |
| 2026-04-25 20:56 | 54.90315 | 8.15585 | 9953 ft | 235 kts | 140° |
| 2026-04-25 20:56 | 54.89049 | 8.17410 | 10507 ft | 238 kts | 138° |
| 2026-04-25 20:56 | 54.87743 | 8.19239 | 11063 ft | 244 kts | 139° |
| 2026-04-25 20:56 | 54.86418 | 8.21109 | 11608 ft | 247 kts | 138° |
| 2026-04-25 20:57 | 54.85079 | 8.23015 | 12145 ft | 251 kts | 138° |
| 2026-04-25 20:57 | 54.83717 | 8.24945 | 12704 ft | 254 kts | 138° |
| 2026-04-25 20:57 | 54.82324 | 8.26879 | 13206 ft | 259 kts | 143° |
| 2026-04-25 20:57 | 54.80789 | 8.28564 | 13710 ft | 262 kts | 148° |
| 2026-04-25 20:58 | 54.79224 | 8.30235 | 14194 ft | 265 kts | 147° |
| 2026-04-25 20:58 | 54.77661 | 8.31949 | 14668 ft | 267 kts | 147° |
| 2026-04-25 20:58 | 54.76087 | 8.33673 | 15132 ft | 269 kts | 147° |
| 2026-04-25 20:58 | 54.74489 | 8.35411 | 15598 ft | 271 kts | 147° |
| 2026-04-25 20:59 | 54.72912 | 8.37131 | 16051 ft | 273 kts | 147° |
| 2026-04-25 20:59 | 54.71302 | 8.38881 | 16488 ft | 273 kts | 148° |
| 2026-04-25 20:59 | 54.69714 | 8.40660 | 16974 ft | 272 kts | 142° |
| 2026-04-25 20:59 | 54.68417 | 8.43028 | 17395 ft | 270 kts | 120° |
| 2026-04-25 21:00 | 54.67554 | 8.45843 | 17826 ft | 262 kts | 102° |
| 2026-04-25 21:00 | 54.67331 | 8.46844 | 17965 ft | 263 kts | 102° |
| 2026-04-25 21:00 | 54.65462 | 8.54732 | 19030 ft | 269 kts | 103° |
| 2026-04-25 21:01 | 54.64760 | 8.57732 | 19407 ft | 270 kts | 103° |
| 2026-04-25 21:01 | 54.64045 | 8.60750 | 19783 ft | 272 kts | 103° |
| 2026-04-25 21:01 | 54.63327 | 8.63780 | 20152 ft | 274 kts | 103° |
| 2026-04-25 21:01 | 54.62604 | 8.66840 | 20498 ft | 278 kts | 103° |
| 2026-04-25 21:02 | 54.61880 | 8.69964 | 20844 ft | 277 kts | 98° |
| 2026-04-25 21:02 | 54.61515 | 8.73127 | 21192 ft | 267 kts | 85° |
| 2026-04-25 21:02 | 54.61240 | 8.76300 | 21595 ft | 268 kts | 87° |
| 2026-04-25 21:02 | 54.60929 | 8.79430 | 21985 ft | 268 kts | 87° |
| 2026-04-25 21:03 | 54.60634 | 8.82597 | 22385 ft | 267 kts | 86° |
| 2026-04-25 21:03 | 54.60319 | 8.85760 | 22749 ft | 274 kts | 95° |
| 2026-04-25 21:03 | 54.59461 | 8.88791 | 23142 ft | 288 kts | 119° |
| 2026-04-25 21:03 | 54.58122 | 8.91385 | 23534 ft | 291 kts | 131° |
| 2026-04-25 21:04 | 54.56701 | 8.93873 | 23898 ft | 291 kts | 131° |
| 2026-04-25 21:04 | 54.55269 | 8.96338 | 24239 ft | 290 kts | 133° |
| 2026-04-25 21:04 | 54.53827 | 8.98769 | 24579 ft | 290 kts | 133° |
| 2026-04-25 21:04 | 54.52396 | 9.01202 | 24932 ft | 289 kts | 132° |
| 2026-04-25 21:05 | 54.50966 | 9.03637 | 25291 ft | 289 kts | 132° |
| 2026-04-25 21:05 | 54.49534 | 9.06066 | 25651 ft | 288 kts | 132° |
| 2026-04-25 21:05 | 54.48111 | 9.08481 | 26013 ft | 288 kts | 132° |
| 2026-04-25 21:05 | 54.46685 | 9.10899 | 26374 ft | 287 kts | 132° |
| 2026-04-25 21:06 | 54.45263 | 9.13308 | 26783 ft | 287 kts | 132° |
| 2026-04-25 21:06 | 54.43830 | 9.15735 | 27096 ft | 289 kts | 132° |
| 2026-04-25 21:06 | 54.42397 | 9.18158 | 27467 ft | 289 kts | 132° |
| 2026-04-25 21:06 | 54.41915 | 9.18970 | 27590 ft | 289 kts | 132° |
| 2026-04-25 21:07 | 54.39543 | 9.22973 | 28160 ft | 287 kts | 133° |
| 2026-04-25 21:07 | 54.38121 | 9.25366 | 28543 ft | 286 kts | 133° |
| 2026-04-25 21:07 | 54.36705 | 9.27754 | 28899 ft | 285 kts | 133° |
| 2026-04-25 21:07 | 54.35280 | 9.30146 | 29115 ft | 291 kts | 133° |
| 2026-04-25 21:08 | 54.33801 | 9.32636 | 29128 ft | 304 kts | 133° |
| 2026-04-25 21:08 | 54.30703 | 9.37825 | 29114 ft | 322 kts | 133° |
| 2026-04-25 21:09 | 54.25717 | 9.46159 | 29110 ft | 345 kts | 133° |
| 2026-04-25 21:09 | 54.22218 | 9.51993 | 29110 ft | 357 kts | 134° |
| 2026-04-25 21:10 | 54.18612 | 9.57987 | 29142 ft | 366 kts | 134° |
| 2026-04-25 21:10 | 54.14935 | 9.64085 | 29114 ft | 374 kts | 134° |
| 2026-04-25 21:11 | 54.11178 | 9.70300 | 29119 ft | 378 kts | 134° |
| 2026-04-25 21:11 | 54.07419 | 9.76495 | 29107 ft | 375 kts | 134° |
| 2026-04-25 21:12 | 54.03692 | 9.82668 | 29104 ft | 373 kts | 133° |
| 2026-04-25 21:12 | 54.01247 | 9.86864 | 29104 ft | 373 kts | 133° |
| 2026-04-25 21:13 | 53.96313 | 9.95117 | 29103 ft | 373 kts | 133° |
| 2026-04-25 21:13 | 53.92640 | 10.01290 | 29108 ft | 374 kts | 134° |
| 2026-04-25 21:14 | 53.88906 | 10.07521 | 29110 ft | 374 kts | 133° |
| 2026-04-25 21:14 | 53.85197 | 10.13703 | 29108 ft | 374 kts | 134° |
| 2026-04-25 21:15 | 53.82109 | 10.18831 | 29108 ft | 374 kts | 134° |
| 2026-04-25 21:15 | 53.78408 | 10.24965 | 29115 ft | 371 kts | 134° |
| 2026-04-25 21:16 | 53.74730 | 10.31047 | 29113 ft | 369 kts | 134° |
| 2026-04-25 21:16 | 53.71269 | 10.36754 | 29099 ft | 369 kts | 134° |
| 2026-04-25 21:17 | 53.67588 | 10.42815 | 29098 ft | 369 kts | 134° |
| 2026-04-25 21:17 | 53.63881 | 10.48897 | 29110 ft | 375 kts | 134° |
| 2026-04-25 21:18 | 53.60148 | 10.55010 | 29112 ft | 375 kts | 134° |
| 2026-04-25 21:18 | 53.56407 | 10.61117 | 29111 ft | 374 kts | 134° |
| 2026-04-25 21:19 | 53.52677 | 10.67187 | 29105 ft | 372 kts | 134° |
| 2026-04-25 21:19 | 53.48966 | 10.73216 | 29092 ft | 369 kts | 135° |
| 2026-04-25 21:20 | 53.45889 | 10.78200 | 29095 ft | 371 kts | 135° |
| 2026-04-25 21:20 | 53.41557 | 10.85202 | 29089 ft | 372 kts | 135° |
| 2026-04-25 21:21 | 53.37808 | 10.91247 | 29103 ft | 375 kts | 135° |
| 2026-04-25 21:21 | 53.34036 | 10.97316 | 29099 ft | 376 kts | 135° |
| 2026-04-25 21:22 | 53.30258 | 11.03370 | 29102 ft | 376 kts | 135° |
| 2026-04-25 21:22 | 53.26472 | 11.09422 | 29102 ft | 376 kts | 135° |
| 2026-04-25 21:23 | 53.22685 | 11.15465 | 29094 ft | 376 kts | 135° |
| 2026-04-25 21:23 | 53.18926 | 11.21442 | 29082 ft | 371 kts | 135° |
| 2026-04-25 21:24 | 53.15193 | 11.27367 | 29084 ft | 370 kts | 136° |
| 2026-04-25 21:24 | 53.11455 | 11.33288 | 29090 ft | 376 kts | 135° |
| 2026-04-25 21:25 | 53.07649 | 11.39299 | 29092 ft | 377 kts | 136° |
| 2026-04-25 21:25 | 53.03838 | 11.45301 | 29088 ft | 376 kts | 136° |
| 2026-04-25 21:26 | 53.00040 | 11.51267 | 29087 ft | 376 kts | 136° |
| 2026-04-25 21:26 | 52.96240 | 11.57220 | 29089 ft | 375 kts | 136° |
| 2026-04-25 21:27 | 52.92442 | 11.63154 | 29084 ft | 375 kts | 136° |
| 2026-04-25 21:27 | 52.88643 | 11.69079 | 29084 ft | 374 kts | 136° |
| 2026-04-25 21:28 | 52.84832 | 11.75005 | 29088 ft | 381 kts | 136° |
| 2026-04-25 21:28 | 52.80954 | 11.81025 | 29084 ft | 381 kts | 136° |
| 2026-04-25 21:29 | 52.77086 | 11.87008 | 29082 ft | 380 kts | 136° |
| 2026-04-25 21:29 | 52.73227 | 11.92966 | 29084 ft | 379 kts | 136° |
| 2026-04-25 21:30 | 52.69373 | 11.98894 | 29078 ft | 379 kts | 136° |
| 2026-04-25 21:30 | 52.66167 | 12.03819 | 29078 ft | 378 kts | 136° |
| 2026-04-25 21:31 | 52.61702 | 12.10659 | 29070 ft | 377 kts | 136° |
| 2026-04-25 21:31 | 52.57824 | 12.16583 | 29073 ft | 382 kts | 136° |
| 2026-04-25 21:32 | 52.53924 | 12.22529 | 29078 ft | 381 kts | 137° |
| 2026-04-25 21:32 | 52.50034 | 12.28442 | 29072 ft | 381 kts | 137° |
| 2026-04-25 21:33 | 52.46146 | 12.34336 | 29071 ft | 380 kts | 137° |
| 2026-04-25 21:33 | 52.42264 | 12.40208 | 29071 ft | 380 kts | 137° |
| 2026-04-25 21:34 | 52.38382 | 12.46063 | 29062 ft | 379 kts | 137° |
| 2026-04-25 21:34 | 52.34507 | 12.51894 | 29062 ft | 384 kts | 137° |
| 2026-04-25 21:35 | 52.30602 | 12.57755 | 29040 ft | 378 kts | 137° |
| 2026-04-25 21:35 | 52.26710 | 12.63586 | 29041 ft | 380 kts | 137° |
| 2026-04-25 21:36 | 52.22799 | 12.69428 | 29043 ft | 381 kts | 137° |
| 2026-04-25 21:36 | 52.20836 | 12.72354 | 28661 ft | 384 kts | 137° |
| 2026-04-25 21:36 | 52.18884 | 12.75260 | 28108 ft | 377 kts | 138° |
| 2026-04-25 21:37 | 52.16963 | 12.78117 | 27574 ft | 372 kts | 138° |
| 2026-04-25 21:37 | 52.15698 | 12.79996 | 27233 ft | 370 kts | 137° |
| 2026-04-25 21:37 | 52.13144 | 12.83788 | 26548 ft | 373 kts | 138° |
| 2026-04-25 21:37 | 52.11224 | 12.86630 | 26050 ft | 374 kts | 138° |
| 2026-04-25 21:38 | 52.09297 | 12.89481 | 25570 ft | 376 kts | 138° |
| 2026-04-25 21:38 | 52.07360 | 12.92345 | 25088 ft | 377 kts | 138° |
| 2026-04-25 21:38 | 52.05413 | 12.95221 | 24611 ft | 378 kts | 138° |
| 2026-04-25 21:38 | 52.03490 | 12.98056 | 24118 ft | 377 kts | 138° |
| 2026-04-25 21:39 | 52.01551 | 13.00908 | 23657 ft | 376 kts | 138° |
| 2026-04-25 21:39 | 51.99610 | 13.03765 | 23115 ft | 377 kts | 138° |
| 2026-04-25 21:39 | 51.97663 | 13.06624 | 22568 ft | 377 kts | 138° |
| 2026-04-25 21:39 | 51.95714 | 13.09484 | 22046 ft | 378 kts | 139° |
| 2026-04-25 21:40 | 51.93763 | 13.12344 | 21528 ft | 378 kts | 139° |
| 2026-04-25 21:40 | 51.91807 | 13.15206 | 21047 ft | 378 kts | 139° |
| 2026-04-25 21:40 | 51.89875 | 13.18033 | 20552 ft | 379 kts | 139° |
| 2026-04-25 21:40 | 51.87916 | 13.20893 | 20061 ft | 380 kts | 139° |
| 2026-04-25 21:41 | 51.85954 | 13.23754 | 19578 ft | 380 kts | 139° |
| 2026-04-25 21:41 | 51.83983 | 13.26625 | 19127 ft | 383 kts | 140° |
| 2026-04-25 21:41 | 51.81841 | 13.29157 | 18645 ft | 380 kts | 153° |
| 2026-04-25 21:41 | 51.79545 | 13.31282 | 18158 ft | 381 kts | 154° |
| 2026-04-25 21:42 | 51.77255 | 13.33457 | 17618 ft | 381 kts | 153° |
| 2026-04-25 21:42 | 51.74984 | 13.35642 | 17048 ft | 373 kts | 153° |
| 2026-04-25 21:42 | 51.72755 | 13.37752 | 16519 ft | 369 kts | 154° |
| 2026-04-25 21:42 | 51.70547 | 13.39817 | 16008 ft | 365 kts | 154° |
| 2026-04-25 21:43 | 51.68361 | 13.41875 | 15508 ft | 363 kts | 154° |
| 2026-04-25 21:43 | 51.66190 | 13.43946 | 15011 ft | 360 kts | 153° |
| 2026-04-25 21:43 | 51.64047 | 13.46003 | 14526 ft | 358 kts | 154° |
| 2026-04-25 21:43 | 51.61902 | 13.48007 | 14047 ft | 354 kts | 155° |
| 2026-04-25 21:44 | 51.59781 | 13.49977 | 13539 ft | 351 kts | 155° |
| 2026-04-25 21:44 | 51.57680 | 13.51948 | 13001 ft | 348 kts | 154° |
| 2026-04-25 21:44 | 51.53571 | 13.55797 | 11969 ft | 340 kts | 155° |
| 2026-04-25 21:45 | 51.51536 | 13.57690 | 11470 ft | 336 kts | 155° |
| 2026-04-25 21:45 | 51.50181 | 13.58955 | 11342 ft | 333 kts | 155° |
| 2026-04-25 21:45 | 51.47523 | 13.61433 | 10716 ft | 328 kts | 155° |
| 2026-04-25 21:45 | 51.45555 | 13.63264 | 10278 ft | 326 kts | 155° |
| 2026-04-25 21:46 | 51.43588 | 13.65087 | 9836 ft | 324 kts | 155° |
| 2026-04-25 21:46 | 51.41643 | 13.66895 | 9355 ft | 322 kts | 155° |
| 2026-04-25 21:46 | 51.39706 | 13.68693 | 8885 ft | 320 kts | 155° |
| 2026-04-25 21:46 | 51.37787 | 13.70472 | 8416 ft | 318 kts | 155° |
| 2026-04-25 21:47 | 51.35918 | 13.72333 | 7945 ft | 318 kts | 144° |
| 2026-04-25 21:47 | 51.34609 | 13.75172 | 7455 ft | 319 kts | 111° |
| 2026-04-25 21:47 | 51.34318 | 13.78580 | 6968 ft | 304 kts | 77° |
| 2026-04-25 21:47 | 51.34966 | 13.81625 | 6520 ft | 287 kts | 55° |
| 2026-04-25 21:48 | 51.35925 | 13.84395 | 6056 ft | 283 kts | 51° |
| 2026-04-25 21:48 | 51.36926 | 13.87084 | 5589 ft | 280 kts | 51° |
| 2026-04-25 21:48 | 51.37926 | 13.89737 | 5126 ft | 276 kts | 51° |
| 2026-04-25 21:48 | 51.38870 | 13.92403 | 4655 ft | 276 kts | 56° |
| 2026-04-25 21:49 | 51.39606 | 13.95259 | 4184 ft | 279 kts | 65° |
| 2026-04-25 21:49 | 51.40041 | 13.98301 | 4013 ft | 285 kts | 76° |
| 2026-04-25 21:49 | 51.40123 | 14.01495 | 4005 ft | 292 kts | 90° |
| 2026-04-25 21:49 | 51.39710 | 14.04686 | 4004 ft | 294 kts | 103° |
| 2026-04-25 21:50 | 51.39091 | 14.07811 | 4007 ft | 294 kts | 106° |
| 2026-04-25 21:50 | 51.38493 | 14.10949 | 4004 ft | 293 kts | 102° |
| 2026-04-25 21:50 | 51.37893 | 14.14067 | 3892 ft | 298 kts | 115° |
| 2026-04-25 21:50 | 51.37086 | 14.15781 | 3697 ft | 289 kts | 138° |
| 2026-04-25 21:51 | 51.34825 | 14.17196 | 3307 ft | 252 kts | 187° |
| 2026-04-25 21:51 | 51.33291 | 14.16288 | 3019 ft | 227 kts | 227° |
| 2026-04-25 21:51 | 51.32604 | 14.14264 | 3002 ft | 203 kts | 266° |
| 2026-04-25 21:51 | 51.32477 | 14.12018 | 3005 ft | 202 kts | 271° |
| 2026-04-25 21:52 | 51.32386 | 14.09772 | 3016 ft | 203 kts | 271° |
| 2026-04-25 21:52 | 51.32299 | 14.07505 | 3018 ft | 205 kts | 272° |
| 2026-04-25 21:52 | 51.32161 | 14.05237 | 2999 ft | 208 kts | 261° |
| 2026-04-25 21:52 | 51.31383 | 14.03206 | 2997 ft | 218 kts | 240° |
| 2026-04-25 21:53 | 51.30522 | 14.01214 | 2997 ft | 217 kts | 244° |
| 2026-04-25 21:53 | 51.29708 | 13.99192 | 3003 ft | 215 kts | 245° |
| 2026-04-25 21:53 | 51.28793 | 13.97290 | 2994 ft | 225 kts | 227° |
| 2026-04-25 21:53 | 51.27417 | 13.96028 | 2999 ft | 229 kts | 219° |
| 2026-04-25 21:54 | 51.26221 | 13.94523 | 3000 ft | 207 kts | 230° |
| 2026-04-25 21:54 | 51.25214 | 13.93084 | 2996 ft | 190 kts | 231° |
| 2026-04-25 21:54 | 51.24233 | 13.91719 | 2990 ft | 186 kts | 230° |
| 2026-04-25 21:54 | 51.23263 | 13.90386 | 2986 ft | 183 kts | 231° |
| 2026-04-25 21:55 | 51.22295 | 13.89033 | 2820 ft | 187 kts | 230° |
| 2026-04-25 21:55 | 51.21293 | 13.87644 | 2553 ft | 197 kts | 230° |
| 2026-04-25 21:55 | 51.20289 | 13.86284 | 2293 ft | 184 kts | 230° |
| 2026-04-25 21:55 | 51.19335 | 13.84912 | 2045 ft | 179 kts | 232° |
| 2026-04-25 21:56 | 51.18486 | 13.83757 | 1818 ft | 141 kts | 231° |
| 2026-04-25 21:56 | 51.18027 | 13.83175 | 1696 ft | 111 kts | 233° |
| 2026-04-25 21:56 | 51.17396 | 13.82295 | 1542 ft | 78 kts | 237° |
| 2026-04-25 21:56 | 51.17000 | 13.81716 | 1454 ft | 84 kts | 234° |
| 2026-04-25 21:57 | 51.16517 | 13.81085 | 1346 ft | 94 kts | 234° |
| 2026-04-25 21:57 | 51.15949 | 13.80419 | 1208 ft | 103 kts | 224° |
| 2026-04-25 21:57 | 51.15451 | 13.79631 | 1078 ft | 104 kts | 232° |
| 2026-04-25 21:57 | 51.14916 | 13.78879 | 931 ft | 105 kts | 228° |
| 2026-04-25 21:58 | 51.14386 | 13.78135 | 765 ft | 89 kts | 233° |
| 2026-04-25 21:58 | 51.13989 | 13.77570 | 721 ft | 74 kts | 227° |
| 2026-04-25 21:58 | 51.13656 | 13.77131 | 725 ft | 47 kts | 240° |
| 2026-04-25 21:58 | 51.13459 | 13.76822 | 728 ft | 34 kts | 217° |
| 2026-04-25 21:59 | 51.13301 | 13.76621 | 737 ft | 25 kts | 219° |
| 2026-04-25 21:59 | 51.13159 | 13.76446 | 742 ft | 29 kts | 216° |
| 2026-04-25 21:59 | 51.12970 | 13.76199 | 745 ft | 41 kts | 221° |
| 2026-04-25 22:00 | 51.12626 | 13.75700 | 759 ft | 21 kts | 219° |
| 2026-04-25 22:00 | 51.12522 | 13.75564 | 761 ft | 16 kts | 223° |
| 2026-04-25 22:00 | 51.12457 | 13.75527 | 762 ft | 9 kts | 141° |
| 2026-04-25 22:00 | 51.12418 | 13.75602 | 760 ft | 9 kts | 126° |
| 2026-04-25 22:01 | 51.12394 | 13.75679 | 756 ft | 6 kts | 113° |
| 2026-04-25 22:01 | 51.12393 | 13.75681 | 756 ft | 0 kts | 113° |
| 2026-04-25 22:02 | 51.12392 | 13.75685 | 757 ft | 5 kts | 113° |
| 2026-04-25 22:02 | 51.12371 | 13.75792 | 759 ft | 11 kts | 81° |
| 2026-04-25 22:02 | 51.12416 | 13.75870 | 758 ft | 10 kts | 41° |
| 2026-04-25 22:03 | 51.12477 | 13.75953 | 756 ft | 12 kts | 40° |
| 2026-04-25 22:03 | 51.12539 | 13.76043 | 752 ft | 12 kts | 57° |
| 2026-04-25 22:03 | 51.12534 | 13.76152 | 751 ft | 9 kts | 88° |
| 2026-04-25 22:03 | 51.12566 | 13.76214 | 750 ft | 6 kts | 39° |
| 2026-04-25 22:04 | 51.12573 | 13.76223 | 750 ft | 0 kts | 39° |
| 2026-04-25 22:04 | 51.12594 | 13.76270 | 749 ft | 7 kts | 123° |
| 2026-04-25 22:04 | 51.12572 | 13.76310 | 748 ft | 2 kts | 130° |
| 2026-04-25 22:04 | 51.12571 | 13.76312 | 748 ft | 0 kts | 130° |